createdAt,value
2023-03-01T00:01:39.162Z,1.30
2023-03-01T00:04:05.869Z,1.30
2023-03-01T00:06:32.976Z,1.30
2023-03-01T00:08:59.908Z,1.30
2023-03-01T00:11:29.190Z,1.30
2023-03-01T00:13:58.537Z,1.30
2023-03-01T00:16:29.486Z,1.30
2023-03-01T00:18:57.616Z,1.30
2023-03-01T00:21:24.998Z,1.30
2023-03-01T00:23:51.992Z,1.30
2023-03-01T00:26:20.315Z,1.30
2023-03-01T00:28:47.466Z,1.30
2023-03-01T00:31:16.770Z,1.30
2023-03-01T00:33:45.145Z,1.30
2023-03-01T00:36:14.415Z,1.30
2023-03-01T00:38:42.941Z,1.30
2023-03-01T00:41:12.772Z,1.30
2023-03-01T00:43:39.636Z,1.30
2023-03-01T00:46:08.869Z,1.30
2023-03-01T00:48:36.322Z,1.30
2023-03-01T00:51:09.627Z,1.30
2023-03-01T00:53:36.868Z,1.30
2023-03-01T00:56:05.083Z,1.30
2023-03-01T00:58:31.918Z,1.30
2023-03-01T01:00:58.820Z,1.30
2023-03-01T01:03:25.925Z,1.30
2023-03-01T01:05:53.186Z,1.30
2023-03-01T01:08:21.695Z,1.30
2023-03-01T01:10:48.471Z,1.30
2023-03-01T01:13:15.313Z,1.30
2023-03-01T01:15:42.382Z,1.30
2023-03-01T01:18:09.476Z,1.40
2023-03-01T01:20:36.834Z,1.30
2023-03-01T01:23:05.741Z,1.30
2023-03-01T01:25:35.449Z,1.30
2023-03-01T01:28:02.174Z,1.30
2023-03-01T01:30:28.886Z,1.30
2023-03-01T01:32:55.558Z,1.30
2023-03-01T01:35:22.279Z,1.30
2023-03-01T01:37:49.023Z,1.30
2023-03-01T01:40:15.702Z,1.30
2023-03-01T01:42:43.736Z,1.30
2023-03-01T01:45:33.298Z,1.30
2023-03-01T01:48:07.865Z,1.30
2023-03-01T01:50:36.427Z,1.30
2023-03-01T01:53:03.194Z,1.30
2023-03-01T01:55:29.990Z,1.30
2023-03-01T01:58:02.409Z,1.30
2023-03-01T02:00:30.904Z,1.30
2023-03-01T02:03:01.339Z,1.30
2023-03-01T02:05:35.870Z,1.20
2023-03-01T02:08:02.793Z,1.20
2023-03-01T02:10:30.056Z,1.30
2023-03-01T02:12:59.037Z,1.20
2023-03-01T02:15:25.840Z,1.20
2023-03-01T02:17:53.890Z,1.20
2023-03-01T02:20:26.114Z,1.20
2023-03-01T02:22:54.742Z,1.30
2023-03-01T02:25:31.201Z,1.30
2023-03-01T02:28:06.138Z,1.20
2023-03-01T02:30:35.305Z,1.20
2023-03-01T02:33:04.989Z,1.30
2023-03-01T02:35:34.757Z,1.20
2023-03-01T02:38:04.235Z,1.20
2023-03-01T02:40:34.203Z,1.20
2023-03-01T02:43:00.991Z,1.20
2023-03-01T02:45:28.115Z,1.20
2023-03-01T02:47:56.929Z,1.10
2023-03-01T02:50:40.346Z,1.20
2023-03-01T02:53:12.128Z,1.10
2023-03-01T02:55:38.930Z,1.10
2023-03-01T02:58:05.896Z,1.10
2023-03-01T03:00:38.453Z,1.10
2023-03-01T03:03:07.742Z,1.10
2023-03-01T03:05:35.562Z,1.10
2023-03-01T03:08:04.019Z,1.10
2023-03-01T03:10:32.676Z,1.10
2023-03-01T03:13:01.450Z,1.10
2023-03-01T03:15:29.036Z,1.10
2023-03-01T03:17:57.017Z,1.20
2023-03-01T03:20:27.320Z,1.10
2023-03-01T03:22:55.971Z,1.10
2023-03-01T03:25:23.364Z,1.10
2023-03-01T03:27:51.858Z,1.10
2023-03-01T03:30:20.251Z,1.00
2023-03-01T03:32:48.424Z,1.00
2023-03-01T03:35:15.186Z,1.00
2023-03-01T03:37:43.273Z,1.00
2023-03-01T03:40:11.414Z,1.00
2023-03-01T03:42:38.112Z,1.10
2023-03-01T03:45:05.532Z,1.00
2023-03-01T03:47:32.300Z,1.00
2023-03-01T03:49:59.001Z,1.00
2023-03-01T03:52:25.845Z,1.00
2023-03-01T03:54:53.891Z,0.90
2023-03-01T03:57:20.579Z,1.00
2023-03-01T03:59:47.249Z,1.00
2023-03-01T04:02:13.955Z,1.00
2023-03-01T04:04:40.757Z,1.00
2023-03-01T04:07:07.493Z,0.90
2023-03-01T04:09:34.336Z,0.90
2023-03-01T04:12:02.368Z,0.80
2023-03-01T04:14:29.091Z,0.80
2023-03-01T04:16:55.816Z,0.70
2023-03-01T04:19:22.529Z,0.70
2023-03-01T04:21:49.234Z,0.70
2023-03-01T04:24:15.917Z,0.70
2023-03-01T04:26:42.667Z,0.70
2023-03-01T04:29:10.806Z,0.70
2023-03-01T04:31:37.632Z,0.70
2023-03-01T04:34:04.326Z,0.60
2023-03-01T04:36:31.746Z,0.70
2023-03-01T04:38:58.707Z,0.70
2023-03-01T04:41:26.155Z,0.60
2023-03-01T04:43:52.912Z,0.60
2023-03-01T04:46:21.884Z,0.60
2023-03-01T04:48:48.830Z,0.60
2023-03-01T04:51:15.620Z,0.50
2023-03-01T04:53:43.485Z,0.50
2023-03-01T04:56:10.593Z,0.50
2023-03-01T04:58:37.980Z,0.50
2023-03-01T05:01:10.480Z,0.50
2023-03-01T05:03:38.504Z,0.40
2023-03-01T05:06:05.575Z,0.40
2023-03-01T05:08:32.262Z,0.40
2023-03-01T05:10:59.006Z,0.40
2023-03-01T05:13:25.744Z,0.40
2023-03-01T05:15:56.566Z,0.30
2023-03-01T05:18:23.552Z,0.30
2023-03-01T05:20:51.593Z,0.40
2023-03-01T05:23:18.347Z,0.40
2023-03-01T05:25:45.919Z,0.40
2023-03-01T05:28:13.393Z,0.30
2023-03-01T05:30:40.774Z,0.40
2023-03-01T05:33:07.809Z,0.40
2023-03-01T05:35:34.548Z,0.40
2023-03-01T05:38:02.661Z,0.30
2023-03-01T05:40:29.351Z,0.30
2023-03-01T05:42:57.391Z,0.20
2023-03-01T05:45:25.670Z,0.20
2023-03-01T05:47:53.279Z,0.20
2023-03-01T05:50:22.658Z,0.20
2023-03-01T05:52:51.341Z,0.20
2023-03-01T05:55:21.256Z,0.20
2023-03-01T05:57:48.533Z,0.20
2023-03-01T06:00:18.007Z,0.20
2023-03-01T06:02:44.788Z,0.20
2023-03-01T06:05:13.330Z,0.20
2023-03-01T06:07:40.174Z,0.10
2023-03-01T06:10:08.515Z,0.10
2023-03-01T06:12:38.061Z,0.10
2023-03-01T06:15:06.689Z,0.10
2023-03-01T06:17:35.243Z,0.00
2023-03-01T06:20:01.978Z,0.00
2023-03-01T06:22:28.821Z,0.00
2023-03-01T06:24:55.524Z,0.00
2023-03-01T06:27:22.275Z,0.10
2023-03-01T06:29:50.298Z,0.10
2023-03-01T06:32:17.377Z,0.10
2023-03-01T06:34:44.127Z,0.00
2023-03-01T06:37:11.360Z,0.00
2023-03-01T06:39:38.464Z,0.10
2023-03-01T06:42:05.290Z,0.10
2023-03-01T06:44:32.601Z,0.10
2023-03-01T06:47:00.850Z,0.10
2023-03-01T06:49:27.746Z,0.10
2023-03-01T06:51:54.478Z,0.10
2023-03-01T06:54:21.286Z,0.10
2023-03-01T06:56:48.560Z,0.10
2023-03-01T06:59:15.553Z,0.10
2023-03-01T07:01:42.308Z,0.10
2023-03-01T07:04:10.422Z,0.10
2023-03-01T07:06:37.211Z,0.20
2023-03-01T07:09:04.134Z,0.20
2023-03-01T07:11:30.877Z,0.20
2023-03-01T07:13:57.572Z,0.20
2023-03-01T07:16:24.366Z,0.20
2023-03-01T07:18:51.064Z,0.20
2023-03-01T07:21:19.108Z,0.20
2023-03-01T07:23:48.580Z,0.20
2023-03-01T07:26:15.300Z,0.20
2023-03-01T07:28:42.012Z,0.30
2023-03-01T07:31:08.766Z,0.30
2023-03-01T07:33:35.494Z,0.40
2023-03-01T07:36:04.482Z,0.40
2023-03-01T07:38:33.072Z,0.40
2023-03-01T07:41:00.680Z,0.50
2023-03-01T07:43:27.641Z,0.50
2023-03-01T07:45:54.442Z,0.60
2023-03-01T07:48:21.240Z,0.60
2023-03-01T07:50:47.984Z,0.60
2023-03-01T07:53:14.701Z,0.60
2023-03-01T07:55:42.731Z,0.70
2023-03-01T07:58:09.445Z,0.70
2023-03-01T08:00:36.153Z,0.70
2023-03-01T08:03:03.256Z,0.80
2023-03-01T08:05:30.239Z,0.80
2023-03-01T08:07:57.029Z,0.80
2023-03-01T08:10:23.779Z,0.80
2023-03-01T08:12:53.445Z,0.80
2023-03-01T08:15:20.176Z,0.80
2023-03-01T08:17:49.389Z,0.90
2023-03-01T08:20:18.815Z,0.90
2023-03-01T08:22:46.607Z,0.90
2023-03-01T08:25:13.308Z,0.90
2023-03-01T08:27:40.035Z,0.90
2023-03-01T08:30:09.961Z,0.90
2023-03-01T08:32:38.026Z,1.00
2023-03-01T08:35:05.588Z,1.00
2023-03-01T08:37:32.397Z,1.00
2023-03-01T08:39:59.362Z,1.00
2023-03-01T08:42:26.121Z,1.00
2023-03-01T08:44:52.828Z,1.00
2023-03-01T08:47:20.918Z,1.10
2023-03-01T08:49:47.636Z,1.10
2023-03-01T08:52:14.514Z,1.10
2023-03-01T08:54:41.251Z,1.10
2023-03-01T08:57:07.942Z,1.10
2023-03-01T08:59:34.749Z,1.20
2023-03-01T09:02:01.465Z,1.20
2023-03-01T09:04:29.542Z,1.20
2023-03-01T09:06:56.275Z,1.20
2023-03-01T09:09:23.180Z,1.20
2023-03-01T09:11:49.962Z,1.30
2023-03-01T09:14:16.759Z,1.30
2023-03-01T09:16:43.898Z,1.30
2023-03-01T09:19:10.608Z,1.30
2023-03-01T09:21:41.082Z,1.30
2023-03-01T09:24:12.605Z,1.30
2023-03-01T09:26:39.443Z,1.30
2023-03-01T09:29:06.271Z,1.40
2023-03-01T09:31:33.018Z,1.40
2023-03-01T09:33:59.775Z,1.40
2023-03-01T09:36:26.542Z,1.40
2023-03-01T09:38:54.686Z,1.50
2023-03-01T09:41:45.388Z,1.50
2023-03-01T09:44:28.147Z,1.50
2023-03-01T09:46:55.191Z,1.50
2023-03-01T09:49:26.039Z,1.50
2023-03-01T09:51:59.993Z,1.50
2023-03-01T09:54:28.075Z,1.60
2023-03-01T09:57:14.054Z,1.60
2023-03-01T09:59:54.072Z,1.60
2023-03-01T10:02:27.502Z,1.60
2023-03-01T10:04:58.367Z,1.60
2023-03-01T10:07:37.497Z,1.70
2023-03-01T10:10:08.691Z,1.70
2023-03-01T10:12:38.402Z,1.70
2023-03-01T10:15:08.478Z,1.70
2023-03-01T10:17:38.867Z,1.70
2023-03-01T10:20:19.064Z,1.70
2023-03-01T10:22:45.913Z,1.80
2023-03-01T10:25:16.375Z,1.80
2023-03-01T10:27:52.435Z,1.80
2023-03-01T10:30:23.712Z,1.90
2023-03-01T10:32:53.954Z,1.90
2023-03-01T10:35:23.303Z,1.90
2023-03-01T10:38:04.051Z,1.90
2023-03-01T10:40:32.696Z,2.00
2023-03-01T10:43:02.510Z,2.00
2023-03-01T10:45:34.443Z,2.00
2023-03-01T10:48:06.668Z,2.00
2023-03-01T10:50:33.652Z,2.00
2023-03-01T10:53:01.792Z,2.00
2023-03-01T10:55:35.533Z,2.10
2023-03-01T10:58:16.718Z,2.10
2023-03-01T11:00:51.691Z,2.10
2023-03-01T11:03:22.822Z,2.20
2023-03-01T11:05:56.265Z,2.20
2023-03-01T11:08:36.163Z,2.20
2023-03-01T11:11:23.448Z,2.20
2023-03-01T11:13:54.263Z,2.20
2023-03-01T11:16:27.083Z,2.20
2023-03-01T11:18:58.419Z,2.20
2023-03-01T11:21:27.618Z,2.30
2023-03-01T11:23:54.538Z,2.30
2023-03-01T11:26:23.141Z,2.30
2023-03-01T11:28:54.850Z,2.30
2023-03-01T11:31:24.300Z,2.30
2023-03-01T11:33:56.460Z,2.30
2023-03-01T11:36:30.853Z,2.40
2023-03-01T11:39:03.145Z,2.40
2023-03-01T11:41:34.890Z,2.40
2023-03-01T11:44:04.678Z,2.40
2023-03-01T11:46:54.506Z,2.50
2023-03-01T11:49:40.823Z,2.50
2023-03-01T11:52:13.955Z,2.50
2023-03-01T11:54:52.128Z,2.50
2023-03-01T11:57:43.541Z,2.50
2023-03-01T12:00:24.654Z,2.60
2023-03-01T12:03:16.319Z,2.60
2023-03-01T12:06:10.029Z,2.70
2023-03-01T12:08:42.369Z,2.60
2023-03-01T12:11:19.665Z,2.70
2023-03-01T12:14:16.581Z,2.70
2023-03-01T12:17:01.033Z,2.70
2023-03-01T12:19:42.425Z,2.70
2023-03-01T12:22:27.663Z,2.80
2023-03-01T12:25:13.457Z,2.80
2023-03-01T12:28:05.472Z,2.80
2023-03-01T12:30:49.317Z,2.80
2023-03-01T12:33:27.320Z,2.80
2023-03-01T12:36:14.812Z,2.80
2023-03-01T12:38:43.480Z,2.80
2023-03-01T12:41:42.917Z,2.80
2023-03-01T12:44:27.636Z,2.80
2023-03-01T12:47:08.198Z,2.90
2023-03-01T12:49:39.958Z,2.80
2023-03-01T12:52:15.187Z,2.90
2023-03-01T12:54:42.964Z,2.90
2023-03-01T12:57:15.759Z,2.90
2023-03-01T12:59:50.012Z,2.90
2023-03-01T13:02:24.766Z,2.90
2023-03-01T13:05:09.782Z,2.90
2023-03-01T13:07:42.265Z,2.90
2023-03-01T13:10:20.958Z,3.00
2023-03-01T13:12:53.469Z,3.00
2023-03-01T13:15:29.113Z,3.00
2023-03-01T13:17:58.374Z,3.00
2023-03-01T13:20:31.320Z,3.00
2023-03-01T13:23:04.680Z,3.00
2023-03-01T13:25:37.695Z,3.00
2023-03-01T13:28:40.350Z,3.10
2023-03-01T13:31:08.605Z,3.10
2023-03-01T13:33:46.277Z,3.10
2023-03-01T13:36:47.155Z,3.10
2023-03-01T13:39:29.214Z,3.10
2023-03-01T13:41:56.748Z,3.10
2023-03-01T13:44:27.979Z,3.10
2023-03-01T13:46:58.573Z,3.10
2023-03-01T13:49:45.195Z,3.20
2023-03-01T13:52:37.736Z,3.20
2023-03-01T13:55:06.285Z,3.20
2023-03-01T13:57:36.730Z,3.20
2023-03-01T14:00:05.224Z,3.20
2023-03-01T14:02:31.970Z,3.20
2023-03-01T14:05:01.218Z,3.30
2023-03-01T14:07:29.267Z,3.30
2023-03-01T14:09:58.604Z,3.30
2023-03-01T14:12:40.915Z,3.30
2023-03-01T14:15:16.621Z,3.30
2023-03-01T14:17:53.650Z,3.30
2023-03-01T14:20:24.564Z,3.30
2023-03-01T14:22:55.489Z,3.30
2023-03-01T14:25:26.146Z,3.30
2023-03-01T14:27:57.386Z,3.30
2023-03-01T14:30:26.374Z,3.30
2023-03-01T14:32:54.644Z,3.30
2023-03-01T14:35:25.336Z,3.30
2023-03-01T14:37:52.271Z,3.30
2023-03-01T14:40:25.292Z,3.30
2023-03-01T14:42:53.452Z,3.30
2023-03-01T14:45:20.460Z,3.40
2023-03-01T14:47:48.203Z,3.40
2023-03-01T14:50:24.879Z,3.40
2023-03-01T14:52:57.417Z,3.40
2023-03-01T14:55:29.718Z,3.40
2023-03-01T14:57:57.909Z,3.50
2023-03-01T15:00:27.022Z,3.50
2023-03-01T15:02:56.099Z,3.50
2023-03-01T15:05:29.249Z,3.50
2023-03-01T15:07:57.447Z,3.50
2023-03-01T15:10:25.616Z,3.50
2023-03-01T15:12:52.959Z,3.50
2023-03-01T15:15:39.546Z,3.60
2023-03-01T15:18:15.429Z,3.60
2023-03-01T15:20:43.772Z,3.60
2023-03-01T15:23:21.356Z,3.70
2023-03-01T15:25:48.239Z,3.60
2023-03-01T15:28:20.829Z,3.60
2023-03-01T15:30:55.520Z,3.60
2023-03-01T15:33:31.766Z,3.60
2023-03-01T15:36:00.939Z,3.50
2023-03-01T15:38:34.555Z,3.50
2023-03-01T15:41:02.964Z,3.50
2023-03-01T15:43:42.330Z,3.60
2023-03-01T15:46:21.593Z,3.60
2023-03-01T15:48:49.576Z,3.60
2023-03-01T15:51:17.784Z,3.60
2023-03-01T15:53:54.498Z,3.60
2023-03-01T15:56:21.610Z,3.50
2023-03-01T15:58:48.351Z,3.60
2023-03-01T16:01:16.215Z,3.60
2023-03-01T16:03:42.927Z,3.60
2023-03-01T16:06:10.749Z,3.60
2023-03-01T16:08:39.245Z,3.60
2023-03-01T16:11:09.962Z,3.60
2023-03-01T16:13:36.715Z,3.60
2023-03-01T16:16:03.865Z,3.60
2023-03-01T16:18:30.619Z,3.60
2023-03-01T16:20:57.337Z,3.60
2023-03-01T16:23:24.017Z,3.60
2023-03-01T16:25:52.242Z,3.60
2023-03-01T16:28:18.958Z,3.60
2023-03-01T16:30:47.961Z,3.60
2023-03-01T16:33:31.498Z,3.60
2023-03-01T16:36:01.636Z,3.60
2023-03-01T16:38:28.720Z,3.60
2023-03-01T16:40:56.767Z,3.60
2023-03-01T16:43:23.600Z,3.60
2023-03-01T16:45:50.360Z,3.60
2023-03-01T16:48:17.189Z,3.60
2023-03-01T16:50:43.923Z,3.60
2023-03-01T16:53:10.827Z,3.60
2023-03-01T16:55:37.596Z,3.60
2023-03-01T16:58:05.777Z,3.60
2023-03-01T17:00:32.520Z,3.60
2023-03-01T17:02:59.271Z,3.60
2023-03-01T17:05:26.180Z,3.60
2023-03-01T17:07:52.942Z,3.60
2023-03-01T17:10:20.879Z,3.60
2023-03-01T17:12:49.215Z,3.60
2023-03-01T17:15:17.488Z,3.60
2023-03-01T17:17:44.207Z,3.60
2023-03-01T17:20:12.055Z,3.50
2023-03-01T17:22:38.863Z,3.60
2023-03-01T17:25:08.394Z,3.50
2023-03-01T17:27:35.103Z,3.50
2023-03-01T17:30:01.978Z,3.60
2023-03-01T17:32:30.204Z,3.60
2023-03-01T17:34:56.996Z,3.50
2023-03-01T17:37:23.737Z,3.60
2023-03-01T17:39:50.534Z,3.60
2023-03-01T17:42:17.292Z,3.50
2023-03-01T17:44:44.198Z,3.50
2023-03-01T17:47:11.210Z,3.50
2023-03-01T17:49:39.232Z,3.50
2023-03-01T17:52:05.976Z,3.50
2023-03-01T17:54:33.083Z,3.50
2023-03-01T17:57:00.039Z,3.50
2023-03-01T17:59:26.853Z,3.50
2023-03-01T18:01:53.561Z,3.50
2023-03-01T18:04:20.535Z,3.50
2023-03-01T18:06:48.620Z,3.50
2023-03-01T18:09:15.392Z,3.50
2023-03-01T18:11:42.110Z,3.50
2023-03-01T18:14:08.823Z,3.50
2023-03-01T18:16:35.930Z,3.50
2023-03-01T18:19:03.353Z,3.40
2023-03-01T18:21:30.703Z,3.40
2023-03-01T18:23:58.947Z,3.40
2023-03-01T18:26:26.010Z,3.40
2023-03-01T18:28:53.170Z,3.40
2023-03-01T18:31:21.675Z,3.40
2023-03-01T18:33:49.595Z,3.40
2023-03-01T18:36:19.622Z,3.40
2023-03-01T18:38:46.919Z,3.40
2023-03-01T18:41:15.422Z,3.40
2023-03-01T18:43:42.393Z,3.40
2023-03-01T18:46:09.227Z,3.40
2023-03-01T18:48:35.981Z,3.40
2023-03-01T18:51:10.745Z,3.40
2023-03-01T18:53:37.736Z,3.40
2023-03-01T18:56:05.085Z,3.40
2023-03-01T18:58:33.298Z,3.40
2023-03-01T19:01:00.253Z,3.30
2023-03-01T19:03:27.141Z,3.30
2023-03-01T19:05:53.837Z,3.30
2023-03-01T19:08:20.618Z,3.30
2023-03-01T19:10:54.649Z,3.30
2023-03-01T19:13:21.209Z,3.30
2023-03-01T19:15:49.343Z,3.30
2023-03-01T19:18:16.341Z,3.30
2023-03-01T19:20:44.058Z,3.30
2023-03-01T19:23:13.626Z,3.20
2023-03-01T19:25:40.523Z,3.20
2023-03-01T19:28:07.345Z,3.20
2023-03-01T19:30:34.144Z,3.20
2023-03-01T19:33:02.161Z,3.20
2023-03-01T19:35:29.206Z,3.20
2023-03-01T19:37:55.970Z,3.20
2023-03-01T19:40:22.760Z,3.20
2023-03-01T19:42:49.496Z,3.20
2023-03-01T19:45:22.412Z,3.20
2023-03-01T19:47:52.167Z,3.10
2023-03-01T19:50:20.310Z,3.10
2023-03-01T19:52:46.995Z,3.10
2023-03-01T19:55:14.012Z,3.10
2023-03-01T19:57:40.698Z,3.10
2023-03-01T20:00:10.192Z,3.10
2023-03-01T20:02:37.084Z,3.10
2023-03-01T20:05:04.391Z,3.10
2023-03-01T20:07:32.548Z,3.10
2023-03-01T20:09:59.240Z,3.10
2023-03-01T20:12:26.067Z,3.10
2023-03-01T20:14:52.869Z,3.10
2023-03-01T20:17:19.653Z,3.00
2023-03-01T20:19:46.391Z,3.00
2023-03-01T20:22:13.265Z,3.00
2023-03-01T20:24:41.521Z,3.00
2023-03-01T20:27:08.730Z,3.00
2023-03-01T20:29:35.464Z,3.00
2023-03-01T20:32:02.609Z,3.00
2023-03-01T20:34:29.970Z,2.90
2023-03-01T20:36:56.845Z,2.90
2023-03-01T20:39:23.553Z,2.90
2023-03-01T20:41:51.692Z,2.90
2023-03-01T20:44:18.522Z,2.90
2023-03-01T20:46:45.384Z,2.90
2023-03-01T20:49:12.147Z,2.90
2023-03-01T20:51:38.903Z,2.90
2023-03-01T20:54:05.667Z,2.80
2023-03-01T20:56:33.050Z,2.90
2023-03-01T20:59:01.500Z,2.80
2023-03-01T21:01:28.213Z,2.80
2023-03-01T21:03:55.136Z,2.80
2023-03-01T21:06:22.003Z,2.80
2023-03-01T21:08:48.687Z,2.70
2023-03-01T21:11:15.421Z,2.70
2023-03-01T21:13:42.268Z,2.70
2023-03-01T21:16:12.369Z,2.70
2023-03-01T21:18:39.578Z,2.70
2023-03-01T21:21:08.025Z,2.70
2023-03-01T21:23:36.573Z,2.80
2023-03-01T21:26:04.923Z,2.70
2023-03-01T21:28:31.712Z,2.70
2023-03-01T21:31:04.303Z,2.70
2023-03-01T21:33:32.433Z,2.70
2023-03-01T21:36:00.295Z,2.70
2023-03-01T21:38:29.906Z,2.60
2023-03-01T21:40:56.645Z,2.60
2023-03-01T21:43:23.614Z,2.70
2023-03-01T21:45:50.455Z,2.60
2023-03-01T21:48:17.265Z,2.60
2023-03-01T21:50:45.324Z,2.60
2023-03-01T21:53:12.043Z,2.60
2023-03-01T21:55:46.177Z,2.50
2023-03-01T21:58:12.895Z,2.60
2023-03-01T22:00:39.852Z,2.60
2023-03-01T22:03:06.739Z,2.60
2023-03-01T22:05:33.598Z,2.60
2023-03-01T22:08:02.018Z,2.50
2023-03-01T22:10:28.857Z,2.50
2023-03-01T22:12:56.325Z,2.50
2023-03-01T22:15:24.227Z,2.50
2023-03-01T22:17:50.961Z,2.50
2023-03-01T22:20:17.856Z,2.50
2023-03-01T22:22:44.657Z,2.50
2023-03-01T22:25:12.923Z,2.50
2023-03-01T22:27:39.648Z,2.50
2023-03-01T22:30:08.727Z,2.50
2023-03-01T22:32:35.521Z,2.40
2023-03-01T22:35:02.398Z,2.50
2023-03-01T22:37:29.175Z,2.50
2023-03-01T22:39:56.053Z,2.50
2023-03-01T22:42:24.221Z,2.50
2023-03-01T22:44:50.962Z,2.50
2023-03-01T22:47:17.700Z,2.40
2023-03-01T22:49:44.410Z,2.40
2023-03-01T22:52:11.385Z,2.40
2023-03-01T22:54:38.260Z,2.40
2023-03-01T22:57:04.948Z,2.40
2023-03-01T22:59:33.003Z,2.40
2023-03-01T23:01:59.854Z,2.40
2023-03-01T23:04:26.640Z,2.30
2023-03-01T23:06:53.362Z,2.40
2023-03-01T23:09:25.303Z,2.40
2023-03-01T23:11:52.760Z,2.40
2023-03-01T23:14:19.828Z,2.40
2023-03-01T23:16:48.301Z,2.40
2023-03-01T23:19:15.079Z,2.30
2023-03-01T23:21:41.856Z,2.30
2023-03-01T23:24:08.770Z,2.30
2023-03-01T23:26:35.513Z,2.30
2023-03-01T23:29:02.372Z,2.30
2023-03-01T23:31:29.143Z,2.30
2023-03-01T23:33:57.516Z,2.30
2023-03-01T23:36:25.818Z,2.30
2023-03-01T23:38:55.408Z,2.40
2023-03-01T23:41:24.390Z,2.30
2023-03-01T23:43:53.188Z,2.30
2023-03-01T23:46:22.052Z,2.30
2023-03-01T23:48:49.147Z,2.20
2023-03-01T23:51:17.995Z,2.20
2023-03-01T23:53:47.105Z,2.20
2023-03-01T23:56:14.364Z,2.20
2023-03-01T23:58:41.076Z,2.20
